createdAt,value
2023-01-22T00:00:36.966Z,100591.41
2023-01-22T00:01:19.550Z,100590.38
2023-01-22T00:02:01.362Z,100586.84
2023-01-22T00:02:45.403Z,100590.19
2023-01-22T00:03:27.211Z,100582.38
2023-01-22T00:04:09.465Z,100587.59
2023-01-22T00:04:51.428Z,100580.72
2023-01-22T00:05:33.573Z,100564.81
2023-01-22T00:06:15.328Z,100581.81
2023-01-22T00:06:57.036Z,100585.50
2023-01-22T00:07:38.733Z,100550.16
2023-01-22T00:08:20.679Z,100560.50
2023-01-22T00:09:03.823Z,100565.41
2023-01-22T00:09:45.644Z,100579.72
2023-01-22T00:10:27.375Z,100564.69
2023-01-22T00:11:09.977Z,100587.63
2023-01-22T00:11:52.390Z,100583.44
2023-01-22T00:12:35.297Z,100582.31
2023-01-22T00:13:17.308Z,100554.94
2023-01-22T00:13:59.005Z,100560.59
2023-01-22T00:14:40.792Z,100584.75
2023-01-22T00:15:22.664Z,100554.44
2023-01-22T00:16:04.943Z,100568.56
2023-01-22T00:16:46.657Z,100581.91
2023-01-22T00:17:30.182Z,100560.81
2023-01-22T00:18:11.890Z,100544.66
2023-01-22T00:18:53.587Z,100576.53
2023-01-22T00:19:35.241Z,100571.31
2023-01-22T00:20:17.644Z,100562.84
2023-01-22T00:21:00.340Z,100566.75
2023-01-22T00:21:42.079Z,100581.97
2023-01-22T00:22:23.747Z,100577.50
2023-01-22T00:23:05.593Z,100577.50
2023-01-22T00:23:47.249Z,100556.31
2023-01-22T00:24:28.932Z,100563.34
2023-01-22T00:25:12.302Z,100564.16
2023-01-22T00:26:06.240Z,100556.34
2023-01-22T00:26:47.979Z,100568.88
2023-01-22T00:27:29.667Z,100549.22
2023-01-22T00:28:12.465Z,100564.16
2023-01-22T00:28:54.846Z,100564.47
2023-01-22T00:29:37.552Z,100563.28
2023-01-22T00:30:19.876Z,100549.00
2023-01-22T00:31:03.482Z,100566.84
2023-01-22T00:31:45.310Z,100558.28
2023-01-22T00:32:28.909Z,100560.22
2023-01-22T00:33:10.656Z,100546.13
2023-01-22T00:33:52.413Z,100563.06
2023-01-22T00:34:34.107Z,100563.06
2023-01-22T00:35:15.894Z,100554.88
2023-01-22T00:36:04.197Z,100563.06
2023-01-22T00:36:45.877Z,100536.47
2023-01-22T00:37:27.584Z,100544.66
2023-01-22T00:38:09.344Z,100541.97
2023-01-22T00:38:51.862Z,100545.94
2023-01-22T00:39:33.573Z,100558.47
2023-01-22T00:40:16.819Z,100555.66
2023-01-22T00:41:05.821Z,100556.13
2023-01-22T00:41:49.639Z,100527.41
2023-01-22T00:42:31.671Z,100564.59
2023-01-22T00:43:13.364Z,100529.97
2023-01-22T00:43:55.338Z,100553.78
2023-01-22T00:44:36.951Z,100539.16
2023-01-22T00:45:18.704Z,100526.13
2023-01-22T00:46:01.244Z,100556.94
2023-01-22T00:46:43.013Z,100566.31
2023-01-22T00:47:24.802Z,100562.97
2023-01-22T00:48:06.608Z,100553.72
2023-01-22T00:48:51.248Z,100539.47
2023-01-22T00:49:33.139Z,100533.31
2023-01-22T00:50:15.425Z,100546.91
2023-01-22T00:50:57.480Z,100531.97
2023-01-22T00:51:39.639Z,100554.75
2023-01-22T00:52:21.503Z,100551.41
2023-01-22T00:53:04.019Z,100526.41
2023-01-22T00:53:45.902Z,100535.81
2023-01-22T00:54:27.999Z,100527.47
2023-01-22T00:55:09.890Z,100526.75
2023-01-22T00:55:56.825Z,100553.16
2023-01-22T00:56:38.530Z,100547.00
2023-01-22T00:57:22.018Z,100532.47
2023-01-22T00:58:04.151Z,100552.13
2023-01-22T00:58:46.698Z,100550.38
2023-01-22T00:59:28.427Z,100519.22
2023-01-22T01:00:11.179Z,100544.50
2023-01-22T01:00:53.854Z,100533.44
2023-01-22T01:01:36.076Z,100528.09
2023-01-22T01:02:18.046Z,100545.97
2023-01-22T01:03:18.790Z,100552.44
2023-01-22T01:04:00.417Z,100526.97
2023-01-22T01:04:42.425Z,100534.94
2023-01-22T01:05:24.530Z,100541.41
2023-01-22T01:06:10.526Z,100530.00
2023-01-22T01:06:53.518Z,100547.16
2023-01-22T01:07:35.234Z,100546.13
2023-01-22T01:08:16.908Z,100531.94
2023-01-22T01:08:59.932Z,100549.13
2023-01-22T01:09:41.650Z,100548.09
2023-01-22T01:10:23.367Z,100544.53
2023-01-22T01:11:08.696Z,100528.69
2023-01-22T01:11:50.401Z,100519.38
2023-01-22T01:12:32.428Z,100540.69
2023-01-22T01:13:14.277Z,100534.00
2023-01-22T01:13:55.996Z,100542.03
2023-01-22T01:14:37.693Z,100543.59
2023-01-22T01:15:19.338Z,100521.69
2023-01-22T01:16:07.001Z,100538.09
2023-01-22T01:16:50.755Z,100539.31
2023-01-22T01:17:32.534Z,100520.84
2023-01-22T01:18:14.376Z,100540.16
2023-01-22T01:19:04.555Z,100521.34
2023-01-22T01:19:46.278Z,100525.44
2023-01-22T01:20:28.009Z,100519.28
2023-01-22T01:21:11.922Z,100527.63
2023-01-22T01:21:53.542Z,100522.41
2023-01-22T01:22:35.465Z,100538.06
2023-01-22T01:23:17.097Z,100534.38
2023-01-22T01:23:59.951Z,100513.59
2023-01-22T01:24:41.701Z,100502.66
2023-01-22T01:25:23.519Z,100544.63
2023-01-22T01:26:09.912Z,100523.44
2023-01-22T01:26:53.430Z,100533.53
2023-01-22T01:27:35.179Z,100538.44
2023-01-22T01:28:17.500Z,100544.41
2023-01-22T01:28:59.204Z,100518.53
2023-01-22T01:29:40.880Z,100533.34
2023-01-22T01:30:22.524Z,100515.81
2023-01-22T01:31:06.541Z,100514.22
2023-01-22T01:31:53.170Z,100531.75
2023-01-22T01:32:35.005Z,100535.84
2023-01-22T01:33:16.644Z,100526.78
2023-01-22T01:33:58.473Z,100536.78
2023-01-22T01:34:40.217Z,100516.53
2023-01-22T01:35:24.228Z,100534.59
2023-01-22T01:36:10.097Z,100530.00
2023-01-22T01:36:51.914Z,100540.03
2023-01-22T01:37:33.622Z,100545.03
2023-01-22T01:38:15.398Z,100537.41
2023-01-22T01:38:57.626Z,100530.22
2023-01-22T01:39:39.307Z,100525.94
2023-01-22T01:40:21.010Z,100522.69
2023-01-22T01:41:03.682Z,100520.91
2023-01-22T01:41:45.543Z,100541.91
2023-01-22T01:42:34.718Z,100530.94
2023-01-22T01:43:17.540Z,100543.56
2023-01-22T01:44:19.547Z,100549.53
2023-01-22T01:45:35.274Z,100524.38
2023-01-22T01:46:23.916Z,100513.84
2023-01-22T01:47:19.550Z,100535.75
2023-01-22T01:48:12.174Z,100544.81
2023-01-22T01:48:55.316Z,100530.63
2023-01-22T01:49:57.298Z,100545.44
2023-01-22T01:50:42.467Z,100533.44
2023-01-22T01:51:30.101Z,100539.19
2023-01-22T01:52:14.510Z,100530.81
2023-01-22T01:52:59.467Z,100536.47
2023-01-22T01:53:44.183Z,100516.81
2023-01-22T01:54:27.489Z,100517.28
2023-01-22T01:55:10.961Z,100531.00
2023-01-22T01:55:54.676Z,100510.38
2023-01-22T01:56:50.866Z,100500.78
2023-01-22T01:57:34.964Z,100509.03
2023-01-22T01:58:24.049Z,100524.88
2023-01-22T01:59:09.172Z,100535.03
2023-01-22T01:59:52.605Z,100517.28
2023-01-22T02:00:37.768Z,100498.78
2023-01-22T02:01:20.113Z,100527.63
2023-01-22T02:02:03.625Z,100538.91
2023-01-22T02:02:45.465Z,100514.22
2023-01-22T02:03:28.672Z,100536.97
2023-01-22T02:04:10.444Z,100536.03
2023-01-22T02:04:53.303Z,100535.00
2023-01-22T02:05:38.092Z,100534.91
2023-01-22T02:06:21.118Z,100538.34
2023-01-22T02:07:05.481Z,100517.47
2023-01-22T02:07:48.790Z,100504.63
2023-01-22T02:08:30.872Z,100538.25
2023-01-22T02:09:13.263Z,100535.72
2023-01-22T02:09:55.094Z,100530.00
2023-01-22T02:10:37.974Z,100533.03
2023-01-22T02:11:21.613Z,100529.22
2023-01-22T02:12:03.873Z,100504.09
2023-01-22T02:12:45.582Z,100516.41
2023-01-22T02:13:32.456Z,100520.34
2023-01-22T02:14:18.285Z,100519.19
2023-01-22T02:15:03.670Z,100516.69
2023-01-22T02:15:46.618Z,100529.22
2023-01-22T02:16:29.656Z,100522.38
2023-01-22T02:17:18.336Z,100512.97
2023-01-22T02:18:00.022Z,100500.34
2023-01-22T02:18:41.740Z,100521.41
2023-01-22T02:19:23.515Z,100524.75
2023-01-22T02:20:05.714Z,100528.00
2023-01-22T02:21:30.817Z,100523.91
2023-01-22T02:22:24.427Z,100528.91
2023-01-22T02:23:06.467Z,100529.75
2023-01-22T02:23:48.254Z,100529.75
2023-01-22T02:24:31.601Z,100511.91
2023-01-22T02:25:13.224Z,100521.59
2023-01-22T02:25:55.821Z,100501.03
2023-01-22T02:26:38.552Z,100508.47
2023-01-22T02:27:20.511Z,100531.22
2023-01-22T02:28:03.417Z,100503.66
2023-01-22T02:28:45.058Z,100526.00
2023-01-22T02:29:27.223Z,100509.50
2023-01-22T02:30:09.531Z,100524.31
2023-01-22T02:30:51.299Z,100523.47
2023-01-22T02:31:33.956Z,100504.28
2023-01-22T02:32:16.149Z,100505.72
2023-01-22T02:32:57.886Z,100490.91
2023-01-22T02:33:39.914Z,100526.09
2023-01-22T02:34:24.569Z,100518.38
2023-01-22T02:35:07.039Z,100520.03
2023-01-22T02:35:48.825Z,100513.03
2023-01-22T02:36:33.417Z,100524.22
2023-01-22T02:37:15.168Z,100514.91
2023-01-22T02:37:56.867Z,100513.03
2023-01-22T02:38:38.692Z,100519.50
2023-01-22T02:39:20.488Z,100524.25
2023-01-22T02:40:02.261Z,100524.56
2023-01-22T02:40:49.314Z,100507.97
2023-01-22T02:41:34.101Z,100505.03
2023-01-22T02:42:15.773Z,100504.22
2023-01-22T02:42:58.396Z,100514.22
2023-01-22T02:43:40.741Z,100486.56
2023-01-22T02:44:22.585Z,100515.56
2023-01-22T02:45:04.859Z,100504.69
2023-01-22T02:45:46.636Z,100524.13
2023-01-22T02:46:28.547Z,100507.22
2023-01-22T02:47:10.256Z,100520.44
2023-01-22T02:47:53.049Z,100517.00
2023-01-22T02:48:34.791Z,100504.50
2023-01-22T02:49:16.574Z,100497.59
2023-01-22T02:49:58.373Z,100516.59
2023-01-22T02:50:40.128Z,100521.72
2023-01-22T02:51:22.311Z,100490.81
2023-01-22T02:52:05.006Z,100503.09
2023-01-22T02:52:46.771Z,100510.84
2023-01-22T02:53:28.518Z,100512.13
2023-01-22T02:54:10.208Z,100520.69
2023-01-22T02:54:51.896Z,100498.88
2023-01-22T02:55:33.622Z,100523.16
2023-01-22T02:56:15.405Z,100524.25
2023-01-22T02:56:57.169Z,100514.72
2023-01-22T02:57:39.095Z,100529.97
2023-01-22T02:58:20.802Z,100525.56
2023-01-22T02:59:03.841Z,100521.91
2023-01-22T02:59:45.671Z,100520.13
2023-01-22T03:00:27.445Z,100517.53
2023-01-22T03:01:18.931Z,100522.03
2023-01-22T03:02:01.464Z,100520.44
2023-01-22T03:02:43.294Z,100485.13
2023-01-22T03:03:25.066Z,100523.81
2023-01-22T03:04:10.973Z,100518.22
2023-01-22T03:05:02.002Z,100518.81
2023-01-22T03:05:51.710Z,100509.44
2023-01-22T03:06:33.597Z,100505.34
2023-01-22T03:07:16.020Z,100517.38
2023-01-22T03:07:57.895Z,100489.72
2023-01-22T03:08:39.575Z,100507.44
2023-01-22T03:09:21.274Z,100522.50
2023-01-22T03:10:02.947Z,100513.28
2023-01-22T03:10:46.108Z,100520.81
2023-01-22T03:11:29.968Z,100491.78
2023-01-22T03:12:12.480Z,100512.66
2023-01-22T03:13:13.154Z,100506.59
2023-01-22T03:14:14.771Z,100521.19
2023-01-22T03:15:15.017Z,100513.13
2023-01-22T03:16:15.341Z,100522.44
2023-01-22T03:17:15.945Z,100504.56
2023-01-22T03:18:16.195Z,100519.38
2023-01-22T03:19:17.073Z,100475.97
2023-01-22T03:20:17.368Z,100522.00
2023-01-22T03:21:18.645Z,100508.44
2023-01-22T03:22:00.579Z,100509.03
2023-01-22T03:22:42.322Z,100520.00
2023-01-22T03:23:27.912Z,100517.91
2023-01-22T03:24:10.227Z,100505.94
2023-01-22T03:24:53.101Z,100516.03
2023-01-22T03:25:37.738Z,100475.56
2023-01-22T03:26:21.545Z,100503.91
2023-01-22T03:27:04.508Z,100483.03
2023-01-22T03:28:05.994Z,100504.84
2023-01-22T03:28:50.563Z,100488.16
2023-01-22T03:29:32.312Z,100477.97
2023-01-22T03:30:14.517Z,100505.38
2023-01-22T03:30:56.320Z,100514.16
2023-01-22T03:31:38.632Z,100481.50
2023-01-22T03:32:21.284Z,100494.13
2023-01-22T03:33:02.974Z,100495.91
2023-01-22T03:33:44.823Z,100498.41
2023-01-22T03:34:27.224Z,100513.41
2023-01-22T03:35:11.234Z,100511.63
2023-01-22T03:36:13.148Z,100506.94
2023-01-22T03:36:59.505Z,100477.13
2023-01-22T03:37:41.199Z,100492.97
2023-01-22T03:38:23.195Z,100509.19
2023-01-22T03:39:04.972Z,100502.44
2023-01-22T03:39:46.688Z,100497.53
2023-01-22T03:40:36.776Z,100510.88
2023-01-22T03:41:18.654Z,100498.16
2023-01-22T03:42:02.227Z,100509.94
2023-01-22T03:42:44.578Z,100482.53
2023-01-22T03:43:28.032Z,100497.41
2023-01-22T03:44:11.684Z,100501.81
2023-01-22T03:44:53.430Z,100505.16
2023-01-22T03:45:35.562Z,100492.13
2023-01-22T03:46:20.168Z,100488.91
2023-01-22T03:47:06.107Z,100489.72
2023-01-22T03:47:47.961Z,100496.31
2023-01-22T03:48:42.019Z,100502.84
2023-01-22T03:49:23.696Z,100486.28
2023-01-22T03:50:08.400Z,100487.94
2023-01-22T03:50:52.415Z,100466.16
2023-01-22T03:51:34.465Z,100473.16
2023-01-22T03:52:17.109Z,100476.53
2023-01-22T03:52:58.908Z,100489.97
2023-01-22T03:53:42.169Z,100506.06
2023-01-22T03:54:23.987Z,100507.09
2023-01-22T03:55:06.169Z,100503.66
2023-01-22T03:55:57.380Z,100487.81
2023-01-22T03:56:39.787Z,100495.09
2023-01-22T03:57:30.959Z,100499.38
2023-01-22T03:58:12.721Z,100499.59
2023-01-22T03:58:54.536Z,100488.22
2023-01-22T03:59:37.689Z,100500.97
2023-01-22T04:00:20.357Z,100479.91
2023-01-22T04:01:09.469Z,100502.34
2023-01-22T04:01:52.761Z,100506.75
2023-01-22T04:02:35.112Z,100503.16
2023-01-22T04:03:28.307Z,100500.69
2023-01-22T04:04:10.622Z,100508.63
2023-01-22T04:04:52.293Z,100501.19
2023-01-22T04:05:34.053Z,100477.97
2023-01-22T04:06:16.220Z,100492.63
2023-01-22T04:06:58.159Z,100512.66
2023-01-22T04:07:39.870Z,100517.69
2023-01-22T04:08:25.032Z,100514.34
2023-01-22T04:09:08.946Z,100513.41
2023-01-22T04:10:00.605Z,100517.06
2023-01-22T04:10:42.967Z,100493.47
2023-01-22T04:11:24.969Z,100468.75
2023-01-22T04:12:07.726Z,100495.59
2023-01-22T04:12:49.507Z,100513.50
2023-01-22T04:13:36.147Z,100471.19
2023-01-22T04:14:17.824Z,100516.47
2023-01-22T04:15:09.644Z,100504.66
2023-01-22T04:15:51.420Z,100514.91
2023-01-22T04:17:11.419Z,100520.41
2023-01-22T04:18:16.065Z,100518.97
2023-01-22T04:19:18.303Z,100517.69
2023-01-22T04:20:07.971Z,100500.88
2023-01-22T04:21:12.971Z,100496.50
2023-01-22T04:21:58.770Z,100513.19
2023-01-22T04:22:40.425Z,100500.88
2023-01-22T04:23:24.759Z,100513.28
2023-01-22T04:24:07.744Z,100492.31
2023-01-22T04:24:49.749Z,100522.03
2023-01-22T04:25:31.480Z,100521.00
2023-01-22T04:26:13.397Z,100510.03
2023-01-22T04:26:55.300Z,100476.34
2023-01-22T04:27:37.839Z,100523.16
2023-01-22T04:28:20.627Z,100522.97
2023-01-22T04:29:05.859Z,100523.91
2023-01-22T04:29:47.698Z,100524.75
2023-01-22T04:30:29.682Z,100496.59
2023-01-22T04:31:21.713Z,100509.34
2023-01-22T04:32:23.763Z,100530.09
2023-01-22T04:33:13.629Z,100525.22
2023-01-22T04:34:12.554Z,100516.34
2023-01-22T04:35:01.666Z,100528.97
2023-01-22T04:35:53.084Z,100527.41
2023-01-22T04:36:34.797Z,100497.25
2023-01-22T04:37:16.469Z,100513.09
2023-01-22T04:37:58.901Z,100519.28
2023-01-22T04:38:40.649Z,100519.38
2023-01-22T04:39:23.714Z,100522.19
2023-01-22T04:40:05.979Z,100528.78
2023-01-22T04:40:51.151Z,100534.00
2023-01-22T04:41:33.005Z,100524.50
2023-01-22T04:42:14.748Z,100531.59
2023-01-22T04:43:01.364Z,100516.66
2023-01-22T04:43:43.239Z,100502.25
2023-01-22T04:44:24.929Z,100517.50
2023-01-22T04:45:07.649Z,100526.56
2023-01-22T04:45:50.720Z,100511.75
2023-01-22T04:46:35.113Z,100527.09
2023-01-22T04:47:17.166Z,100520.84
2023-01-22T04:47:59.331Z,100503.72
2023-01-22T04:48:41.489Z,100525.84
2023-01-22T04:49:23.166Z,100530.00
2023-01-22T04:50:06.789Z,100516.44
2023-01-22T04:50:48.749Z,100529.81
2023-01-22T04:51:30.563Z,100520.50
2023-01-22T04:52:12.282Z,100519.66
2023-01-22T04:52:55.987Z,100526.97
2023-01-22T04:53:37.893Z,100516.94
2023-01-22T04:54:22.548Z,100486.56
2023-01-22T04:55:05.402Z,100522.16
2023-01-22T04:55:58.898Z,100514.94
2023-01-22T04:56:41.526Z,100518.28
2023-01-22T04:57:23.521Z,100500.41
2023-01-22T04:58:05.666Z,100522.97
2023-01-22T04:58:47.688Z,100511.56
2023-01-22T04:59:30.096Z,100500.00
2023-01-22T05:00:14.218Z,100517.44
2023-01-22T05:00:57.320Z,100523.66
2023-01-22T05:01:39.118Z,100498.72
2023-01-22T05:02:21.000Z,100509.06
2023-01-22T05:03:04.839Z,100494.16
2023-01-22T05:03:46.597Z,100529.34
2023-01-22T05:04:28.335Z,100503.09
2023-01-22T05:05:10.431Z,100530.56
2023-01-22T05:05:52.093Z,100537.44
2023-01-22T05:06:33.766Z,100539.97
2023-01-22T05:07:16.465Z,100518.16
2023-01-22T05:07:59.457Z,100521.25
2023-01-22T05:08:41.129Z,100507.19
2023-01-22T05:09:25.882Z,100532.84
2023-01-22T05:10:10.519Z,100520.09
2023-01-22T05:10:52.207Z,100533.44
2023-01-22T05:11:40.774Z,100534.19
2023-01-22T05:12:22.475Z,100534.91
2023-01-22T05:13:07.432Z,100535.63
2023-01-22T05:13:49.714Z,100509.13
2023-01-22T05:14:32.407Z,100540.97
2023-01-22T05:15:24.115Z,100537.63
2023-01-22T05:16:08.177Z,100530.94
2023-01-22T05:16:50.680Z,100532.44
2023-01-22T05:17:32.432Z,100531.94
2023-01-22T05:18:14.112Z,100536.19
2023-01-22T05:19:05.239Z,100537.38
2023-01-22T05:19:47.011Z,100531.63
2023-01-22T05:20:33.552Z,100537.06
2023-01-22T05:21:15.332Z,100546.47
2023-01-22T05:21:57.151Z,100546.56
2023-01-22T05:22:39.012Z,100542.19
2023-01-22T05:23:21.104Z,100531.00
2023-01-22T05:24:02.923Z,100535.19
2023-01-22T05:24:45.152Z,100539.56
2023-01-22T05:25:26.965Z,100541.88
2023-01-22T05:26:08.825Z,100527.34
2023-01-22T05:26:55.803Z,100547.63
2023-01-22T05:27:43.232Z,100540.59
2023-01-22T05:28:30.290Z,100539.88
2023-01-22T05:29:41.344Z,100547.09
2023-01-22T05:30:39.268Z,100547.41
2023-01-22T05:31:45.632Z,100543.38
2023-01-22T05:32:43.856Z,100537.72
2023-01-22T05:33:29.393Z,100549.44
2023-01-22T05:34:11.353Z,100548.34
2023-01-22T05:34:53.020Z,100524.38
2023-01-22T05:35:34.829Z,100554.19
2023-01-22T05:36:16.591Z,100523.09
2023-01-22T05:36:58.875Z,100533.03
2023-01-22T05:37:42.251Z,100548.56
2023-01-22T05:38:24.336Z,100528.28
2023-01-22T05:39:06.258Z,100546.53
2023-01-22T05:39:48.718Z,100537.28
2023-01-22T05:40:32.330Z,100553.34
2023-01-22T05:41:14.041Z,100550.63
2023-01-22T05:41:56.158Z,100548.31
2023-01-22T05:42:38.050Z,100550.00
2023-01-22T05:43:21.916Z,100549.25
2023-01-22T05:44:13.609Z,100530.41
2023-01-22T05:44:56.275Z,100530.00
2023-01-22T05:45:39.830Z,100552.53
2023-01-22T05:46:47.522Z,100565.59
2023-01-22T05:47:39.999Z,100568.41
2023-01-22T05:48:41.617Z,100565.81
2023-01-22T05:49:28.899Z,100529.81
2023-01-22T05:50:12.132Z,100555.06
2023-01-22T05:50:53.981Z,100550.56
2023-01-22T05:51:35.820Z,100537.50
2023-01-22T05:52:17.498Z,100535.84
2023-01-22T05:53:00.148Z,100535.63
2023-01-22T05:53:41.799Z,100559.31
2023-01-22T05:54:23.543Z,100547.66
2023-01-22T05:55:06.656Z,100566.22
2023-01-22T05:55:55.191Z,100552.53
2023-01-22T05:56:37.009Z,100555.16
2023-01-22T05:57:18.946Z,100562.31
2023-01-22T05:58:01.385Z,100565.66
2023-01-22T05:58:43.587Z,100550.44
2023-01-22T05:59:25.425Z,100557.94
2023-01-22T06:00:14.346Z,100546.78
2023-01-22T06:01:02.699Z,100552.41
2023-01-22T06:01:50.399Z,100541.66
2023-01-22T06:02:32.319Z,100537.59
2023-01-22T06:03:14.129Z,100562.66
2023-01-22T06:04:02.214Z,100543.44
2023-01-22T06:04:43.981Z,100551.66
2023-01-22T06:05:35.801Z,100568.81
2023-01-22T06:06:21.465Z,100546.91
2023-01-22T06:07:03.217Z,100550.00
2023-01-22T06:07:44.868Z,100569.66
2023-01-22T06:08:27.527Z,100556.78
2023-01-22T06:09:12.949Z,100568.59
2023-01-22T06:09:55.142Z,100567.41
2023-01-22T06:10:36.890Z,100571.50
2023-01-22T06:11:19.581Z,100541.44
2023-01-22T06:12:01.468Z,100544.19
2023-01-22T06:12:43.276Z,100555.22
2023-01-22T06:13:24.984Z,100565.56
2023-01-22T06:14:10.376Z,100561.50
2023-01-22T06:14:54.139Z,100578.94
2023-01-22T06:15:36.134Z,100560.25
2023-01-22T06:16:31.252Z,100561.28
2023-01-22T06:17:25.976Z,100564.81
2023-01-22T06:18:10.456Z,100538.72
2023-01-22T06:18:53.378Z,100555.75
2023-01-22T06:19:35.056Z,100565.31
2023-01-22T06:20:17.465Z,100577.72
2023-01-22T06:21:00.943Z,100580.97
2023-01-22T06:21:43.832Z,100566.22
2023-01-22T06:22:26.149Z,100576.38
2023-01-22T06:23:11.847Z,100565.19
2023-01-22T06:23:53.730Z,100567.78
2023-01-22T06:24:35.558Z,100576.59
2023-01-22T06:25:17.257Z,100560.59
2023-01-22T06:26:14.620Z,100571.03
2023-01-22T06:26:57.643Z,100563.97
2023-01-22T06:27:46.904Z,100571.72
2023-01-22T06:28:29.284Z,100559.94
2023-01-22T06:29:11.094Z,100557.41
2023-01-22T06:29:53.831Z,100556.22
2023-01-22T06:30:36.851Z,100570.25
2023-01-22T06:31:18.688Z,100570.94
2023-01-22T06:32:00.807Z,100541.00
2023-01-22T06:32:42.474Z,100575.84
2023-01-22T06:33:25.965Z,100575.63
2023-01-22T06:34:08.754Z,100562.88
2023-01-22T06:34:50.451Z,100550.47
2023-01-22T06:35:33.880Z,100572.81
2023-01-22T06:36:16.170Z,100569.94
2023-01-22T06:36:58.076Z,100568.28
2023-01-22T06:37:41.892Z,100544.22
2023-01-22T06:38:24.245Z,100555.78
2023-01-22T06:39:06.205Z,100564.50
2023-01-22T06:39:53.785Z,100555.47
2023-01-22T06:41:01.663Z,100562.94
2023-01-22T06:41:47.920Z,100564.41
2023-01-22T06:42:31.054Z,100542.81
2023-01-22T06:43:12.716Z,100569.53
2023-01-22T06:43:54.418Z,100560.53
2023-01-22T06:44:36.070Z,100524.56
2023-01-22T06:45:17.824Z,100566.28
2023-01-22T06:46:05.416Z,100557.00
2023-01-22T06:47:06.066Z,100563.69
2023-01-22T06:47:47.894Z,100566.41
2023-01-22T06:48:30.064Z,100572.34
2023-01-22T06:49:13.358Z,100563.63
2023-01-22T06:49:55.084Z,100568.44
2023-01-22T06:50:36.885Z,100564.38
2023-01-22T06:51:18.612Z,100576.50
2023-01-22T06:52:00.463Z,100562.13
2023-01-22T06:52:42.735Z,100541.69
2023-01-22T06:53:24.521Z,100578.97
2023-01-22T06:54:06.371Z,100582.53
2023-01-22T06:54:48.187Z,100591.72
2023-01-22T06:55:30.548Z,100592.06
2023-01-22T06:56:12.303Z,100588.19
2023-01-22T06:56:56.319Z,100593.75
2023-01-22T06:57:39.245Z,100595.72
2023-01-22T06:58:21.224Z,100594.16
2023-01-22T06:59:03.003Z,100596.13
2023-01-22T06:59:44.712Z,100595.53
2023-01-22T07:00:26.485Z,100596.47
2023-01-22T07:01:09.935Z,100596.56
2023-01-22T07:01:51.703Z,100593.13
2023-01-22T07:02:33.447Z,100594.78
2023-01-22T07:03:15.179Z,100580.56
2023-01-22T07:03:56.933Z,100593.63
2023-01-22T07:04:38.618Z,100601.34
2023-01-22T07:05:21.902Z,100557.81
2023-01-22T07:06:05.284Z,100586.31
2023-01-22T07:06:47.035Z,100596.13
2023-01-22T07:07:28.851Z,100598.97
2023-01-22T07:08:15.170Z,100600.41
2023-01-22T07:08:56.959Z,100597.16
2023-01-22T07:09:38.637Z,100559.47
2023-01-22T07:10:20.939Z,100602.91
2023-01-22T07:11:02.933Z,100597.91
2023-01-22T07:11:44.681Z,100604.50
2023-01-22T07:12:26.360Z,100606.16
2023-01-22T07:13:10.120Z,100596.97
2023-01-22T07:13:51.891Z,100592.69
2023-01-22T07:14:37.484Z,100589.13
2023-01-22T07:15:19.444Z,100603.75
2023-01-22T07:16:03.067Z,100605.63
2023-01-22T07:16:44.808Z,100595.53
2023-01-22T07:17:26.584Z,100611.50
2023-01-22T07:18:10.748Z,100596.22
2023-01-22T07:18:52.421Z,100604.47
2023-01-22T07:19:34.239Z,100612.13
2023-01-22T07:20:16.368Z,100578.06
2023-01-22T07:21:02.367Z,100597.69
2023-01-22T07:21:44.053Z,100620.44
2023-01-22T07:22:25.734Z,100622.66
2023-01-22T07:23:08.327Z,100597.97
2023-01-22T07:23:50.048Z,100611.38
2023-01-22T07:24:31.677Z,100622.13
2023-01-22T07:25:13.461Z,100621.91
2023-01-22T07:25:55.157Z,100614.47
2023-01-22T07:26:38.657Z,100610.09
2023-01-22T07:27:20.347Z,100597.88
2023-01-22T07:28:03.351Z,100624.94
2023-01-22T07:28:45.324Z,100604.16
2023-01-22T07:29:27.023Z,100631.00
2023-01-22T07:30:09.603Z,100627.66
2023-01-22T07:30:51.433Z,100615.44
2023-01-22T07:31:33.212Z,100608.78
2023-01-22T07:32:14.940Z,100631.22
2023-01-22T07:33:00.623Z,100622.66
2023-01-22T07:33:42.631Z,100633.41
2023-01-22T07:34:24.403Z,100643.22
2023-01-22T07:35:06.388Z,100624.63
2023-01-22T07:35:56.489Z,100641.22
2023-01-22T07:36:38.179Z,100645.50
2023-01-22T07:37:19.815Z,100630.25
2023-01-22T07:38:02.091Z,100616.88
2023-01-22T07:38:43.728Z,100639.44
2023-01-22T07:39:25.383Z,100635.06
2023-01-22T07:40:07.646Z,100638.09
2023-01-22T07:40:49.737Z,100622.94
2023-01-22T07:41:31.988Z,100642.47
2023-01-22T07:42:14.521Z,100637.97
2023-01-22T07:42:56.597Z,100636.22
2023-01-22T07:43:38.292Z,100645.91
2023-01-22T07:44:20.320Z,100640.38
2023-01-22T07:45:01.973Z,100623.66
2023-01-22T07:45:43.770Z,100644.66
2023-01-22T07:46:25.680Z,100650.63
2023-01-22T07:47:07.750Z,100643.91
2023-01-22T07:47:54.664Z,100648.72
2023-01-22T07:48:37.488Z,100647.91
2023-01-22T07:49:19.148Z,100639.44
2023-01-22T07:50:00.855Z,100651.25
2023-01-22T07:50:42.599Z,100637.13
2023-01-22T07:51:24.317Z,100634.50
2023-01-22T07:52:06.015Z,100627.75
2023-01-22T07:52:48.208Z,100641.94
2023-01-22T07:53:29.951Z,100653.84
2023-01-22T07:54:11.616Z,100647.16
2023-01-22T07:54:53.367Z,100654.06
2023-01-22T07:55:35.069Z,100653.22
2023-01-22T07:56:19.058Z,100658.56
2023-01-22T07:57:00.738Z,100606.16
2023-01-22T07:57:42.509Z,100636.94
2023-01-22T07:58:24.543Z,100659.50
2023-01-22T07:59:06.351Z,100653.75
2023-01-22T07:59:48.094Z,100662.13
2023-01-22T08:00:31.191Z,100649.47
2023-01-22T08:01:13.135Z,100636.44
2023-01-22T08:01:55.287Z,100622.31
2023-01-22T08:02:38.433Z,100625.16
2023-01-22T08:03:20.141Z,100660.16
2023-01-22T08:04:02.240Z,100624.63
2023-01-22T08:04:44.080Z,100632.03
2023-01-22T08:05:26.156Z,100654.09
2023-01-22T08:06:12.471Z,100671.00
2023-01-22T08:06:54.136Z,100650.03
2023-01-22T08:07:35.979Z,100663.00
2023-01-22T08:08:20.522Z,100655.44
2023-01-22T08:09:02.209Z,100668.31
2023-01-22T08:09:44.388Z,100674.38
2023-01-22T08:10:26.572Z,100661.50
2023-01-22T08:11:08.722Z,100673.63
2023-01-22T08:11:51.336Z,100638.53
2023-01-22T08:12:33.206Z,100665.91
2023-01-22T08:13:15.078Z,100673.03
2023-01-22T08:13:56.891Z,100667.28
2023-01-22T08:14:38.634Z,100652.44
2023-01-22T08:15:20.371Z,100678.38
2023-01-22T08:16:02.226Z,100657.47
2023-01-22T08:16:44.177Z,100660.81
2023-01-22T08:17:25.946Z,100655.59
2023-01-22T08:18:07.788Z,100661.84
2023-01-22T08:18:49.459Z,100642.19
2023-01-22T08:19:31.186Z,100673.75
2023-01-22T08:20:12.962Z,100655.78
2023-01-22T08:20:54.683Z,100656.28
2023-01-22T08:21:36.510Z,100678.03
2023-01-22T08:22:18.282Z,100657.97
2023-01-22T08:23:00.794Z,100684.00